sensor_id;sensor_type;location;lat;lon;timestamp;pressure;altitude;pressure_sealevel;temperature;humidity
20228;BME280;12195;55.790;37.572;2023-04-27T00:01:10;98999.48;;;11.64;65.34
20228;BME280;12195;55.790;37.572;2023-04-27T00:03:43;99007.66;;;11.59;65.54
20228;BME280;12195;55.790;37.572;2023-04-27T00:06:16;99007.45;;;11.50;65.87
20228;BME280;12195;55.790;37.572;2023-04-27T00:08:48;99008.73;;;11.44;66.14
20228;BME280;12195;55.790;37.572;2023-04-27T00:11:21;99005.66;;;11.38;66.60
20228;BME280;12195;55.790;37.572;2023-04-27T00:13:54;99010.30;;;11.34;66.96
20228;BME280;12195;55.790;37.572;2023-04-27T00:16:27;99015.77;;;11.31;67.06
20228;BME280;12195;55.790;37.572;2023-04-27T00:19:00;99018.29;;;11.33;67.25
20228;BME280;12195;55.790;37.572;2023-04-27T00:21:32;99016.41;;;11.35;67.15
20228;BME280;12195;55.790;37.572;2023-04-27T00:24:04;99016.41;;;11.35;67.26
20228;BME280;12195;55.790;37.572;2023-04-27T00:26:37;99015.56;;;11.34;67.14
20228;BME280;12195;55.790;37.572;2023-04-27T00:29:09;99015.77;;;11.31;67.08
20228;BME280;12195;55.790;37.572;2023-04-27T00:31:42;99014.94;;;11.31;67.20
20228;BME280;12195;55.790;37.572;2023-04-27T00:34:14;99021.77;;;11.33;67.17
20228;BME280;12195;55.790;37.572;2023-04-27T00:36:48;99020.81;;;11.34;66.95
20228;BME280;12195;55.790;37.572;2023-04-27T00:39:22;99026.92;;;11.35;66.90
20228;BME280;12195;55.790;37.572;2023-04-27T00:41:54;99025.35;;;11.32;67.13
20228;BME280;12195;55.790;37.572;2023-04-27T00:44:26;99030.91;;;11.28;67.35
20228;BME280;12195;55.790;37.572;2023-04-27T00:47:00;99025.13;;;11.23;67.71
20228;BME280;12195;55.790;37.572;2023-04-27T00:49:35;99027.11;;;11.19;67.46
20228;BME280;12195;55.790;37.572;2023-04-27T00:52:08;99017.88;;;11.14;67.63
20228;BME280;12195;55.790;37.572;2023-04-27T00:54:40;99026.91;;;11.10;67.94
20228;BME280;12195;55.790;37.572;2023-04-27T00:57:13;99027.31;;;11.03;68.34
20228;BME280;12195;55.790;37.572;2023-04-27T00:59:46;99025.11;;;10.98;68.68
20228;BME280;12195;55.790;37.572;2023-04-27T01:02:19;99032.44;;;10.92;69.04
20228;BME280;12195;55.790;37.572;2023-04-27T01:04:52;99020.58;;;10.87;69.38
20228;BME280;12195;55.790;37.572;2023-04-27T01:07:25;99024.34;;;10.83;69.57
20228;BME280;12195;55.790;37.572;2023-04-27T01:09:57;99029.80;;;10.80;69.76
20228;BME280;12195;55.790;37.572;2023-04-27T01:12:31;99022.21;;;10.75;70.06
20228;BME280;12195;55.790;37.572;2023-04-27T01:15:05;99018.77;;;10.75;70.18
20228;BME280;12195;55.790;37.572;2023-04-27T01:17:37;99023.27;;;10.73;70.51
20228;BME280;12195;55.790;37.572;2023-04-27T01:20:10;99021.39;;;10.75;70.46
20228;BME280;12195;55.790;37.572;2023-04-27T01:22:42;99016.96;;;10.75;70.44
20228;BME280;12195;55.790;37.572;2023-04-27T01:25:14;99013.19;;;10.79;70.34
20228;BME280;12195;55.790;37.572;2023-04-27T01:27:47;99024.45;;;10.81;70.19
20228;BME280;12195;55.790;37.572;2023-04-27T01:30:20;99019.00;;;10.84;70.22
20228;BME280;12195;55.790;37.572;2023-04-27T01:32:55;99015.23;;;10.88;70.04
20228;BME280;12195;55.790;37.572;2023-04-27T01:35:28;99025.50;;;10.91;69.68
20228;BME280;12195;55.790;37.572;2023-04-27T01:38:02;99021.83;;;10.94;69.50
20228;BME280;12195;55.790;37.572;2023-04-27T01:40:34;99021.01;;;10.93;69.56
20228;BME280;12195;55.790;37.572;2023-04-27T01:43:06;99023.73;;;10.92;69.67
20228;BME280;12195;55.790;37.572;2023-04-27T01:45:38;99027.50;;;10.88;69.77
20228;BME280;12195;55.790;37.572;2023-04-27T01:48:11;99034.00;;;10.82;70.13
20228;BME280;12195;55.790;37.572;2023-04-27T01:50:45;99027.27;;;10.78;70.48
20228;BME280;12195;55.790;37.572;2023-04-27T01:53:17;99028.41;;;10.74;70.48
20228;BME280;12195;55.790;37.572;2023-04-27T01:55:50;99029.36;;;10.73;70.57
20228;BME280;12195;55.790;37.572;2023-04-27T01:58:22;99031.33;;;10.70;70.71
20228;BME280;12195;55.790;37.572;2023-04-27T02:00:55;99034.09;;;10.68;70.87
20228;BME280;12195;55.790;37.572;2023-04-27T02:03:27;99033.42;;;10.65;70.87
20228;BME280;12195;55.790;37.572;2023-04-27T02:06:00;99033.52;;;10.63;71.30
20228;BME280;12195;55.790;37.572;2023-04-27T02:08:33;99038.23;;;10.58;71.51
20228;BME280;12195;55.790;37.572;2023-04-27T02:11:06;99029.63;;;10.56;71.79
20228;BME280;12195;55.790;37.572;2023-04-27T02:13:38;99033.94;;;10.57;71.98
20228;BME280;12195;55.790;37.572;2023-04-27T02:16:10;99031.31;;;10.57;72.06
20228;BME280;12195;55.790;37.572;2023-04-27T02:18:42;99041.81;;;10.57;72.14
20228;BME280;12195;55.790;37.572;2023-04-27T02:21:15;99041.81;;;10.57;72.09
20228;BME280;12195;55.790;37.572;2023-04-27T02:23:47;99044.25;;;10.60;72.30
20228;BME280;12195;55.790;37.572;2023-04-27T02:26:21;99052.66;;;10.65;72.47
20228;BME280;12195;55.790;37.572;2023-04-27T02:28:55;99060.21;;;10.70;72.48
20228;BME280;12195;55.790;37.572;2023-04-27T02:31:27;99060.68;;;10.76;72.39
20228;BME280;12195;55.790;37.572;2023-04-27T02:34:00;99062.89;;;10.82;72.25
20228;BME280;12195;55.790;37.572;2023-04-27T02:36:32;99068.48;;;10.90;71.88
20228;BME280;12195;55.790;37.572;2023-04-27T02:39:04;99064.61;;;10.96;71.80
20228;BME280;12195;55.790;37.572;2023-04-27T02:41:38;99066.81;;;11.02;71.67
20228;BME280;12195;55.790;37.572;2023-04-27T02:44:10;99072.50;;;11.08;71.49
20228;BME280;12195;55.790;37.572;2023-04-27T02:46:42;99077.16;;;11.18;71.37
20228;BME280;12195;55.790;37.572;2023-04-27T02:49:15;99067.90;;;11.25;70.97
20228;BME280;12195;55.790;37.572;2023-04-27T02:51:47;99068.98;;;11.35;70.97
20228;BME280;12195;55.790;37.572;2023-04-27T02:54:20;99072.75;;;11.43;70.60
20228;BME280;12195;55.790;37.572;2023-04-27T02:56:52;99079.08;;;11.53;70.29
20228;BME280;12195;55.790;37.572;2023-04-27T02:59:24;99075.95;;;11.61;70.06
20228;BME280;12195;55.790;37.572;2023-04-27T03:01:56;99086.16;;;11.65;69.62
20228;BME280;12195;55.790;37.572;2023-04-27T03:04:29;99083.95;;;11.72;69.45
20228;BME280;12195;55.790;37.572;2023-04-27T03:07:02;99087.09;;;11.77;69.20
20228;BME280;12195;55.790;37.572;2023-04-27T03:09:34;99092.56;;;11.86;68.86
20228;BME280;12195;55.790;37.572;2023-04-27T03:12:07;99092.02;;;11.94;68.67
20228;BME280;12195;55.790;37.572;2023-04-27T03:14:39;99095.70;;;12.04;68.40
20228;BME280;12195;55.790;37.572;2023-04-27T03:17:12;99100.31;;;12.13;68.00
20228;BME280;12195;55.790;37.572;2023-04-27T03:19:45;99087.21;;;12.24;67.68
20228;BME280;12195;55.790;37.572;2023-04-27T03:22:19;99097.11;;;12.33;67.48
20228;BME280;12195;55.790;37.572;2023-04-27T03:24:51;99089.27;;;12.44;67.15
20228;BME280;12195;55.790;37.572;2023-04-27T03:27:23;99093.75;;;12.54;66.54
20228;BME280;12195;55.790;37.572;2023-04-27T03:29:55;99094.69;;;12.66;66.42
20228;BME280;12195;55.790;37.572;2023-04-27T03:32:27;99091.97;;;12.78;65.83
20228;BME280;12195;55.790;37.572;2023-04-27T03:35:00;99092.03;;;12.89;65.26
20228;BME280;12195;55.790;37.572;2023-04-27T03:37:33;99093.05;;;12.99;64.74
20228;BME280;12195;55.790;37.572;2023-04-27T03:40:06;99098.27;;;13.12;64.55
20228;BME280;12195;55.790;37.572;2023-04-27T03:42:38;99103.45;;;13.24;64.35
20228;BME280;12195;55.790;37.572;2023-04-27T03:45:11;99107.09;;;13.34;63.82
20228;BME280;12195;55.790;37.572;2023-04-27T03:47:43;99111.22;;;13.49;63.42
20228;BME280;12195;55.790;37.572;2023-04-27T03:50:17;99111.22;;;13.60;63.00
20228;BME280;12195;55.790;37.572;2023-04-27T03:52:50;99115.56;;;13.72;62.49
20228;BME280;12195;55.790;37.572;2023-04-27T03:55:22;99127.20;;;13.92;62.47
20228;BME280;12195;55.790;37.572;2023-04-27T03:57:55;99122.67;;;13.94;60.97
20228;BME280;12195;55.790;37.572;2023-04-27T04:00:27;99122.91;;;14.02;60.76
20228;BME280;12195;55.790;37.572;2023-04-27T04:03:00;99116.06;;;14.10;59.85
20228;BME280;12195;55.790;37.572;2023-04-27T04:05:32;99126.75;;;14.20;58.68
20228;BME280;12195;55.790;37.572;2023-04-27T04:08:05;99121.73;;;14.28;56.97
20228;BME280;12195;55.790;37.572;2023-04-27T04:10:37;99115.60;;;14.38;56.50
20228;BME280;12195;55.790;37.572;2023-04-27T04:13:10;99120.03;;;14.49;55.93
20228;BME280;12195;55.790;37.572;2023-04-27T04:15:42;99123.52;;;14.60;55.39
20228;BME280;12195;55.790;37.572;2023-04-27T04:18:15;99130.58;;;14.71;55.21
20228;BME280;12195;55.790;37.572;2023-04-27T04:20:47;99126.21;;;14.81;54.99
20228;BME280;12195;55.790;37.572;2023-04-27T04:23:20;99132.45;;;14.91;54.61
20228;BME280;12195;55.790;37.572;2023-04-27T04:25:53;99128.08;;;15.01;54.59
20228;BME280;12195;55.790;37.572;2023-04-27T04:28:29;99129.02;;;15.11;54.52
20228;BME280;12195;55.790;37.572;2023-04-27T04:31:01;99128.95;;;15.22;54.20
20228;BME280;12195;55.790;37.572;2023-04-27T04:33:35;99134.11;;;15.34;53.59
20228;BME280;12195;55.790;37.572;2023-04-27T04:36:09;99135.86;;;15.45;53.01
20228;BME280;12195;55.790;37.572;2023-04-27T04:38:41;99135.09;;;15.54;52.50
20228;BME280;12195;55.790;37.572;2023-04-27T04:41:14;99129.02;;;15.63;52.89
20228;BME280;12195;55.790;37.572;2023-04-27T04:43:46;99131.60;;;15.74;52.72
20228;BME280;12195;55.790;37.572;2023-04-27T04:46:20;99130.50;;;15.97;51.54
20228;BME280;12195;55.790;37.572;2023-04-27T04:48:54;99130.50;;;15.97;51.54
20228;BME280;12195;55.790;37.572;2023-04-27T04:51:26;99138.26;;;16.19;50.78
20228;BME280;12195;55.790;37.572;2023-04-27T04:53:58;99138.26;;;16.19;50.78
20228;BME280;12195;55.790;37.572;2023-04-27T04:56:31;99129.94;;;16.33;50.45
20228;BME280;12195;55.790;37.572;2023-04-27T04:59:04;99135.05;;;16.46;50.10
20228;BME280;12195;55.790;37.572;2023-04-27T05:01:37;99137.88;;;16.54;49.22
20228;BME280;12195;55.790;37.572;2023-04-27T05:04:09;99116.27;;;16.68;49.44
20228;BME280;12195;55.790;37.572;2023-04-27T05:06:42;99116.27;;;16.68;49.44
20228;BME280;12195;55.790;37.572;2023-04-27T05:09:14;99122.16;;;16.81;48.61
20228;BME280;12195;55.790;37.572;2023-04-27T05:11:47;99124.56;;;16.93;47.47
20228;BME280;12195;55.790;37.572;2023-04-27T05:14:19;99142.45;;;17.10;47.26
20228;BME280;12195;55.790;37.572;2023-04-27T05:16:52;99117.17;;;17.06;48.39
20228;BME280;12195;55.790;37.572;2023-04-27T05:19:24;99144.12;;;17.21;48.01
20228;BME280;12195;55.790;37.572;2023-04-27T05:21:57;99142.73;;;17.26;47.71
20228;BME280;12195;55.790;37.572;2023-04-27T05:24:30;99143.87;;;17.33;47.54
20228;BME280;12195;55.790;37.572;2023-04-27T05:27:03;99124.30;;;17.25;47.09
20228;BME280;12195;55.790;37.572;2023-04-27T05:29:35;99148.50;;;17.41;47.40
20228;BME280;12195;55.790;37.572;2023-04-27T05:32:07;99149.63;;;17.48;47.32
20228;BME280;12195;55.790;37.572;2023-04-27T05:34:40;99150.30;;;17.50;46.76
20228;BME280;12195;55.790;37.572;2023-04-27T05:37:14;99148.23;;;17.53;46.34
20228;BME280;12195;55.790;37.572;2023-04-27T05:39:47;99147.78;;;17.58;46.39
20228;BME280;12195;55.790;37.572;2023-04-27T05:42:19;99130.59;;;17.52;46.61
20228;BME280;12195;55.790;37.572;2023-04-27T05:44:52;99153.50;;;17.72;46.37
20228;BME280;12195;55.790;37.572;2023-04-27T05:47:24;99152.09;;;17.78;46.73
20228;BME280;12195;55.790;37.572;2023-04-27T05:49:57;99146.06;;;17.85;46.59
20228;BME280;12195;55.790;37.572;2023-04-27T05:52:31;99146.36;;;17.92;46.22
20228;BME280;12195;55.790;37.572;2023-04-27T05:55:05;99148.00;;;18.02;44.53
20228;BME280;12195;55.790;37.572;2023-04-27T05:57:38;99151.45;;;18.12;42.74
20228;BME280;12195;55.790;37.572;2023-04-27T06:00:12;99146.80;;;18.24;41.62
20228;BME280;12195;55.790;37.572;2023-04-27T06:02:45;99149.17;;;18.36;41.79
20228;BME280;12195;55.790;37.572;2023-04-27T06:05:18;99154.09;;;18.58;41.91
20228;BME280;12195;55.790;37.572;2023-04-27T06:07:50;99141.36;;;19.06;40.68
20228;BME280;12195;55.790;37.572;2023-04-27T06:10:23;99138.93;;;19.65;39.12
20228;BME280;12195;55.790;37.572;2023-04-27T06:12:56;99142.53;;;20.25;37.94
20228;BME280;12195;55.790;37.572;2023-04-27T06:15:28;99150.99;;;20.88;36.52
20228;BME280;12195;55.790;37.572;2023-04-27T06:18:01;99138.61;;;21.44;35.20
20228;BME280;12195;55.790;37.572;2023-04-27T06:20:33;99144.45;;;22.12;33.97
20228;BME280;12195;55.790;37.572;2023-04-27T06:23:06;99144.02;;;22.63;33.20
20228;BME280;12195;55.790;37.572;2023-04-27T06:25:39;99150.25;;;23.16;32.73
20228;BME280;12195;55.790;37.572;2023-04-27T06:28:11;99147.05;;;23.51;31.73
20228;BME280;12195;55.790;37.572;2023-04-27T06:30:44;99152.34;;;24.19;30.82
20228;BME280;12195;55.790;37.572;2023-04-27T06:33:16;99151.56;;;24.76;29.92
20228;BME280;12195;55.790;37.572;2023-04-27T06:35:48;99147.72;;;25.00;29.89
20228;BME280;12195;55.790;37.572;2023-04-27T06:38:21;99153.05;;;24.64;29.92
20228;BME280;12195;55.790;37.572;2023-04-27T06:40:53;99154.09;;;24.26;30.76
20228;BME280;12195;55.790;37.572;2023-04-27T06:43:26;99152.80;;;24.22;30.77
20228;BME280;12195;55.790;37.572;2023-04-27T06:46:01;99150.79;;;24.53;30.24
20228;BME280;12195;55.790;37.572;2023-04-27T06:48:33;99147.98;;;25.05;30.03
20228;BME280;12195;55.790;37.572;2023-04-27T06:51:05;99154.33;;;25.33;29.80
20228;BME280;12195;55.790;37.572;2023-04-27T06:53:38;99145.61;;;25.31;29.85
20228;BME280;12195;55.790;37.572;2023-04-27T06:56:11;99151.58;;;25.12;29.85
20228;BME280;12195;55.790;37.572;2023-04-27T06:58:44;99157.38;;;24.80;29.42
20228;BME280;12195;55.790;37.572;2023-04-27T07:01:16;99160.77;;;24.30;29.96
20228;BME280;12195;55.790;37.572;2023-04-27T07:03:48;99162.03;;;23.83;30.73
20228;BME280;12195;55.790;37.572;2023-04-27T07:06:21;99149.08;;;23.27;31.31
20228;BME280;12195;55.790;37.572;2023-04-27T07:08:55;99158.66;;;22.83;32.33
20228;BME280;12195;55.790;37.572;2023-04-27T07:11:27;99165.96;;;22.50;32.85
20228;BME280;12195;55.790;37.572;2023-04-27T07:14:00;99159.84;;;22.18;33.32
20228;BME280;12195;55.790;37.572;2023-04-27T07:16:32;99162.54;;;21.94;33.84
20228;BME280;12195;55.790;37.572;2023-04-27T07:19:04;99158.54;;;21.74;33.92
20228;BME280;12195;55.790;37.572;2023-04-27T07:21:37;99158.66;;;21.56;33.96
20228;BME280;12195;55.790;37.572;2023-04-27T07:24:09;99160.83;;;21.45;34.67
20228;BME280;12195;55.790;37.572;2023-04-27T07:26:42;99158.15;;;21.37;34.80
20228;BME280;12195;55.790;37.572;2023-04-27T07:29:14;99167.49;;;21.33;34.83
20228;BME280;12195;55.790;37.572;2023-04-27T07:31:49;99165.66;;;21.25;34.72
20228;BME280;12195;55.790;37.572;2023-04-27T07:34:23;99167.80;;;21.22;34.69
20228;BME280;12195;55.790;37.572;2023-04-27T07:36:56;99165.14;;;21.14;33.97
20228;BME280;12195;55.790;37.572;2023-04-27T07:39:28;99159.94;;;21.04;34.26
20228;BME280;12195;55.790;37.572;2023-04-27T07:42:02;99176.58;;;20.98;35.25
20228;BME280;12195;55.790;37.572;2023-04-27T07:44:35;99176.27;;;21.01;35.35
20228;BME280;12195;55.790;37.572;2023-04-27T07:47:08;99166.59;;;21.00;34.61
20228;BME280;12195;55.790;37.572;2023-04-27T07:49:40;99177.59;;;20.97;35.16
20228;BME280;12195;55.790;37.572;2023-04-27T07:52:14;99185.28;;;21.00;34.92
20228;BME280;12195;55.790;37.572;2023-04-27T07:54:47;99184.94;;;21.03;35.39
20228;BME280;12195;55.790;37.572;2023-04-27T07:57:19;99181.13;;;21.06;34.86
20228;BME280;12195;55.790;37.572;2023-04-27T07:59:52;99183.83;;;21.14;34.68
20228;BME280;12195;55.790;37.572;2023-04-27T08:02:26;99180.81;;;21.17;33.89
20228;BME280;12195;55.790;37.572;2023-04-27T08:05:02;99176.66;;;21.22;33.93
20228;BME280;12195;55.790;37.572;2023-04-27T08:07:35;99178.84;;;21.27;33.24
20228;BME280;12195;55.790;37.572;2023-04-27T08:10:09;99183.36;;;21.34;33.94
20228;BME280;12195;55.790;37.572;2023-04-27T08:12:42;99173.70;;;21.41;33.53
20228;BME280;12195;55.790;37.572;2023-04-27T08:15:14;99174.52;;;21.50;33.57
20228;BME280;12195;55.790;37.572;2023-04-27T08:17:47;99170.69;;;21.60;33.95
20228;BME280;12195;55.790;37.572;2023-04-27T08:20:19;99170.86;;;21.67;33.65
20228;BME280;12195;55.790;37.572;2023-04-27T08:22:51;99176.23;;;21.75;33.84
20228;BME280;12195;55.790;37.572;2023-04-27T08:25:24;99175.59;;;21.81;33.93
20228;BME280;12195;55.790;37.572;2023-04-27T08:27:56;99173.41;;;21.84;34.00
20228;BME280;12195;55.790;37.572;2023-04-27T08:30:28;99166.55;;;21.82;33.91
20228;BME280;12195;55.790;37.572;2023-04-27T08:33:01;99170.89;;;21.83;34.24
20228;BME280;12195;55.790;37.572;2023-04-27T08:35:34;99167.24;;;21.84;34.40
20228;BME280;12195;55.790;37.572;2023-04-27T08:38:06;99158.05;;;21.86;34.41
20228;BME280;12195;55.790;37.572;2023-04-27T08:40:42;99157.69;;;21.89;34.99
20228;BME280;12195;55.790;37.572;2023-04-27T08:43:15;99170.72;;;21.92;35.29
20228;BME280;12195;55.790;37.572;2023-04-27T08:45:48;99166.72;;;21.96;35.31
20228;BME280;12195;55.790;37.572;2023-04-27T08:48:21;99165.69;;;22.05;32.20
20228;BME280;12195;55.790;37.572;2023-04-27T08:50:55;99165.21;;;22.02;32.24
20228;BME280;12195;55.790;37.572;2023-04-27T08:53:27;99164.52;;;22.08;33.21
20228;BME280;12195;55.790;37.572;2023-04-27T08:56:00;99167.02;;;22.17;34.07
20228;BME280;12195;55.790;37.572;2023-04-27T08:58:35;99161.16;;;22.22;33.42
20228;BME280;12195;55.790;37.572;2023-04-27T09:01:09;99160.84;;;22.25;34.04
20228;BME280;12195;55.790;37.572;2023-04-27T09:03:41;99153.94;;;22.30;33.98
20228;BME280;12195;55.790;37.572;2023-04-27T09:06:16;99165.48;;;22.31;32.61
20228;BME280;12195;55.790;37.572;2023-04-27T09:08:49;99166.48;;;22.38;32.75
20228;BME280;12195;55.790;37.572;2023-04-27T09:11:30;99163.80;;;22.38;32.70
20228;BME280;12195;55.790;37.572;2023-04-27T09:14:15;99170.17;;;22.37;33.01
20228;BME280;12195;55.790;37.572;2023-04-27T09:16:55;99165.47;;;22.39;33.48
20228;BME280;12195;55.790;37.572;2023-04-27T09:19:30;99170.85;;;22.23;34.16
20228;BME280;12195;55.790;37.572;2023-04-27T09:22:08;99175.22;;;22.08;35.08
20228;BME280;12195;55.790;37.572;2023-04-27T09:24:37;99175.91;;;22.02;35.54
20228;BME280;12195;55.790;37.572;2023-04-27T09:27:17;99166.72;;;21.96;35.40
20228;BME280;12195;55.790;37.572;2023-04-27T09:29:44;99166.88;;;21.95;35.71
20228;BME280;12195;55.790;37.572;2023-04-27T09:32:17;99170.56;;;21.94;35.19
20228;BME280;12195;55.790;37.572;2023-04-27T09:34:51;99173.72;;;21.97;35.10
20228;BME280;12195;55.790;37.572;2023-04-27T09:37:23;99167.72;;;22.03;35.20
20228;BME280;12195;55.790;37.572;2023-04-27T09:39:57;99171.20;;;22.12;36.30
20228;BME280;12195;55.790;37.572;2023-04-27T09:42:30;99163.67;;;22.23;35.64
20228;BME280;12195;55.790;37.572;2023-04-27T09:45:03;99175.69;;;22.51;35.52
20228;BME280;12195;55.790;37.572;2023-04-27T09:47:38;99158.95;;;22.49;34.86
20228;BME280;12195;55.790;37.572;2023-04-27T09:50:14;99165.09;;;22.66;34.13
20228;BME280;12195;55.790;37.572;2023-04-27T09:52:47;99151.06;;;22.94;34.19
20228;BME280;12195;55.790;37.572;2023-04-27T09:55:24;99160.14;;;23.24;33.32
20228;BME280;12195;55.790;37.572;2023-04-27T10:07:07;99152.76;;;23.48;33.29
20228;BME280;12195;55.790;37.572;2023-04-27T10:09:41;99153.48;;;23.65;32.94
20228;BME280;12195;55.790;37.572;2023-04-27T10:12:31;99153.59;;;23.94;31.63
20228;BME280;12195;55.790;37.572;2023-04-27T10:15:12;99152.06;;;24.14;31.26
20228;BME280;12195;55.790;37.572;2023-04-27T10:17:49;99153.38;;;24.32;30.80
20228;BME280;12195;55.790;37.572;2023-04-27T10:20:32;99158.83;;;24.24;30.45
20228;BME280;12195;55.790;37.572;2023-04-27T10:23:04;99159.01;;;24.23;30.23
20228;BME280;12195;55.790;37.572;2023-04-27T10:25:38;99151.60;;;24.39;29.88
20228;BME280;12195;55.790;37.572;2023-04-27T10:28:17;99153.93;;;24.86;29.73
20228;BME280;12195;55.790;37.572;2023-04-27T10:30:51;99155.16;;;25.19;29.87
20228;BME280;12195;55.790;37.572;2023-04-27T10:33:25;99146.89;;;25.35;29.91
20228;BME280;12195;55.790;37.572;2023-04-27T10:35:58;99142.17;;;25.37;29.17
20228;BME280;12195;55.790;37.572;2023-04-27T10:38:30;99152.27;;;25.35;29.31
20228;BME280;12195;55.790;37.572;2023-04-27T10:41:03;99149.66;;;25.27;28.63
20228;BME280;12195;55.790;37.572;2023-04-27T10:43:36;99150.30;;;25.08;27.61
20228;BME280;12195;55.790;37.572;2023-04-27T10:46:10;99147.16;;;24.90;28.95
20228;BME280;12195;55.790;37.572;2023-04-27T10:48:43;99160.16;;;24.72;26.77
20228;BME280;12195;55.790;37.572;2023-04-27T10:51:15;99161.09;;;24.79;27.86
20228;BME280;12195;55.790;37.572;2023-04-27T10:53:52;99148.09;;;24.24;29.06
20228;BME280;12195;55.790;37.572;2023-04-27T10:56:26;99158.81;;;24.10;29.49
20228;BME280;12195;55.790;37.572;2023-04-27T10:59:03;99162.45;;;23.94;29.99
20228;BME280;12195;55.790;37.572;2023-04-27T11:01:36;99155.86;;;23.82;30.89
20228;BME280;12195;55.790;37.572;2023-04-27T11:04:08;99165.80;;;23.74;31.93
20228;BME280;12195;55.790;37.572;2023-04-27T11:06:43;99165.58;;;23.61;33.68
20228;BME280;12195;55.790;37.572;2023-04-27T11:09:26;99170.31;;;23.28;35.17
20228;BME280;12195;55.790;37.572;2023-04-27T11:11:59;99177.67;;;22.96;34.55
20228;BME280;12195;55.790;37.572;2023-04-27T11:14:31;99170.05;;;22.77;33.12
20228;BME280;12195;55.790;37.572;2023-04-27T11:17:06;99169.81;;;22.94;31.86
20228;BME280;12195;55.790;37.572;2023-04-27T11:19:46;99172.25;;;23.42;31.54
20228;BME280;12195;55.790;37.572;2023-04-27T11:22:18;99175.73;;;23.88;31.70
20228;BME280;12195;55.790;37.572;2023-04-27T11:24:52;99176.07;;;24.44;31.19
20228;BME280;12195;55.790;37.572;2023-04-27T11:27:35;99182.44;;;24.58;31.59
20228;BME280;12195;55.790;37.572;2023-04-27T11:30:00;99193.30;;;24.50;31.92
20228;BME280;12195;55.790;37.572;2023-04-27T11:32:32;99199.29;;;24.37;32.21
20228;BME280;12195;55.790;37.572;2023-04-27T11:35:05;99201.95;;;24.23;32.66
20228;BME280;12195;55.790;37.572;2023-04-27T11:37:39;99204.61;;;24.08;32.69
20228;BME280;12195;55.790;37.572;2023-04-27T11:40:16;99207.81;;;24.04;32.71
20228;BME280;12195;55.790;37.572;2023-04-27T11:42:59;99199.48;;;23.99;32.89
20228;BME280;12195;55.790;37.572;2023-04-27T11:45:33;99212.77;;;24.15;32.66
20228;BME280;12195;55.790;37.572;2023-04-27T11:48:05;99204.20;;;24.34;32.25
20228;BME280;12195;55.790;37.572;2023-04-27T11:50:38;99199.75;;;24.55;31.81
20228;BME280;12195;55.790;37.572;2023-04-27T11:53:10;99196.45;;;24.97;31.50
20228;BME280;12195;55.790;37.572;2023-04-27T11:55:42;99197.74;;;25.51;30.98
20228;BME280;12195;55.790;37.572;2023-04-27T11:58:15;99185.59;;;25.97;30.05
20228;BME280;12195;55.790;37.572;2023-04-27T12:00:47;99179.17;;;26.19;29.95
20228;BME280;12195;55.790;37.572;2023-04-27T12:03:20;99183.46;;;26.41;29.82
20228;BME280;12195;55.790;37.572;2023-04-27T12:05:53;99184.78;;;27.20;29.07
20228;BME280;12195;55.790;37.572;2023-04-27T12:08:26;99174.54;;;28.66;27.08
20228;BME280;12195;55.790;37.572;2023-04-27T12:10:58;99171.87;;;30.23;24.49
20228;BME280;12195;55.790;37.572;2023-04-27T12:13:30;99172.01;;;30.53;23.99
20228;BME280;12195;55.790;37.572;2023-04-27T12:16:03;99171.30;;;30.82;23.71
20228;BME280;12195;55.790;37.572;2023-04-27T12:18:35;99152.45;;;31.93;22.63
20228;BME280;12195;55.790;37.572;2023-04-27T12:21:08;99156.53;;;33.34;21.05
20228;BME280;12195;55.790;37.572;2023-04-27T12:23:41;99159.17;;;34.89;19.06
20228;BME280;12195;55.790;37.572;2023-04-27T12:26:14;99158.35;;;36.11;17.67
20228;BME280;12195;55.790;37.572;2023-04-27T12:28:47;99156.06;;;37.23;16.79
20228;BME280;12195;55.790;37.572;2023-04-27T12:31:20;99140.89;;;37.97;15.75
20228;BME280;12195;55.790;37.572;2023-04-27T12:33:57;99147.73;;;38.65;15.34
20228;BME280;12195;55.790;37.572;2023-04-27T12:36:29;99143.12;;;39.24;14.69
20228;BME280;12195;55.790;37.572;2023-04-27T12:39:13;99141.84;;;39.60;14.33
20228;BME280;12195;55.790;37.572;2023-04-27T12:41:47;99125.37;;;39.93;14.08
20228;BME280;12195;55.790;37.572;2023-04-27T12:44:22;99138.38;;;39.88;14.02
20228;BME280;12195;55.790;37.572;2023-04-27T12:46:55;99134.08;;;40.05;14.02
20228;BME280;12195;55.790;37.572;2023-04-27T12:49:27;99123.26;;;40.47;13.64
20228;BME280;12195;55.790;37.572;2023-04-27T12:52:00;99132.27;;;41.05;13.32
20228;BME280;12195;55.790;37.572;2023-04-27T12:54:32;99128.50;;;41.38;13.11
20228;BME280;12195;55.790;37.572;2023-04-27T12:57:05;99128.22;;;41.77;12.72
20228;BME280;12195;55.790;37.572;2023-04-27T12:59:38;99115.70;;;42.16;12.07
20228;BME280;12195;55.790;37.572;2023-04-27T13:02:11;99123.16;;;42.34;11.97
20228;BME280;12195;55.790;37.572;2023-04-27T13:04:44;99128.75;;;42.88;11.64
20228;BME280;12195;55.790;37.572;2023-04-27T13:07:17;99116.20;;;43.31;11.36
20228;BME280;12195;55.790;37.572;2023-04-27T13:09:52;99117.67;;;43.64;11.06
20228;BME280;12195;55.790;37.572;2023-04-27T13:12:24;99113.55;;;43.97;10.87
20228;BME280;12195;55.790;37.572;2023-04-27T13:14:57;99105.86;;;44.16;10.94
20228;BME280;12195;55.790;37.572;2023-04-27T13:17:32;99111.20;;;44.35;10.39
20228;BME280;12195;55.790;37.572;2023-04-27T13:20:05;99108.63;;;44.16;10.41
20228;BME280;12195;55.790;37.572;2023-04-27T13:22:37;99108.62;;;43.72;10.59
20228;BME280;12195;55.790;37.572;2023-04-27T13:25:10;99105.66;;;43.47;10.74
20228;BME280;12195;55.790;37.572;2023-04-27T13:27:43;99114.22;;;43.10;10.78
20228;BME280;12195;55.790;37.572;2023-04-27T13:30:15;99111.93;;;42.98;10.96